Time;durP1;ratioP1;P1;durP2;ratioP2;P2;SDS_P1;SDS_P2;PMS_P1;PMS_P2;Temp;Humidity;BMP_temperature;BMP_pressure;BME280_temperature;BME280_humidity;BME280_pressure;Samples;Min_cycle;Max_cycle;Signal;HPM_P1;HPM_P2
2022/02/24 00:01:13;;;;;;;5.45;2.60;;;;;;;;;;5034203;28;20033;-70
2022/02/24 00:03:40;;;;;;;10.93;2.92;;;;;;;;;;5034352;28;20030;-69
2022/02/24 00:06:07;;;;;;;5.60;3.00;;;;;;;;;;5034363;28;20112;-70
2022/02/24 00:08:33;;;;;;;4.80;2.80;;;;;;;;;;5033370;28;20025;-69
2022/02/24 00:11:00;;;;;;;5.00;2.83;;;;;;;;;;5029485;28;20026;-70
2022/02/24 00:13:27;;;;;;;6.23;2.93;;;;;;;;;;5029261;28;20368;-70
2022/02/24 00:15:54;;;;;;;5.88;2.67;;;;;;;;;;5028401;28;20022;-69
2022/02/24 00:18:20;;;;;;;4.68;2.75;;;;;;;;;;5029178;28;20103;-69
2022/02/24 00:20:47;;;;;;;5.30;3.20;;;;;;;;;;5016544;28;20388;-70
2022/02/24 00:23:14;;;;;;;7.50;3.13;;;;;;;;;;5034057;28;20017;-69
2022/02/24 00:25:40;;;;;;;5.43;3.27;;;;;;;;;;5034181;28;20022;-70
2022/02/24 00:28:07;;;;;;;8.17;3.23;;;;;;;;;;5033855;28;20031;-70
2022/02/24 00:30:34;;;;;;;5.20;3.53;;;;;;;;;;5033290;28;20025;-69
2022/02/24 00:33:00;;;;;;;4.17;2.90;;;;;;;;;;5028330;28;20081;-69
2022/02/24 00:35:27;;;;;;;5.20;3.00;;;;;;;;;;5028565;28;20068;-69
2022/02/24 00:37:54;;;;;;;4.93;3.33;;;;;;;;;;5028389;28;20135;-69
2022/02/24 00:40:20;;;;;;;6.43;3.00;;;;;;;;;;5028626;28;20029;-69
2022/02/24 00:42:47;;;;;;;5.97;3.33;;;;;;;;;;5015315;28;20407;-70
2022/02/24 00:45:14;;;;;;;4.63;3.10;;;;;;;;;;5033139;28;20029;-70
2022/02/24 00:47:41;;;;;;;6.00;2.90;;;;;;;;;;5033512;28;20021;-70
2022/02/24 00:50:07;;;;;;;4.60;2.90;;;;;;;;;;5033070;28;20032;-70
2022/02/24 00:52:34;;;;;;;7.17;3.00;;;;;;;;;;5033273;28;20022;-70
2022/02/24 00:55:01;;;;;;;6.10;3.60;;;;;;;;;;5028536;28;20136;-70
2022/02/24 00:57:27;;;;;;;4.90;2.90;;;;;;;;;;5028075;28;20034;-69
2022/02/24 00:59:54;;;;;;;5.00;2.93;;;;;;;;;;5028304;28;20511;-70
2022/02/24 01:02:21;;;;;;;9.83;2.70;;;;;;;;;;5028294;28;20021;-69
2022/02/24 01:04:48;;;;;;;5.20;2.77;;;;;;;;;;5031989;28;20100;-70
2022/02/24 01:07:14;;;;;;;5.43;2.90;;;;;;;;;;5033099;28;20022;-69
2022/02/24 01:09:41;;;;;;;7.70;3.10;;;;;;;;;;5032998;28;20056;-69
2022/02/24 01:12:08;;;;;;;6.87;3.33;;;;;;;;;;5033030;28;20495;-70
2022/02/24 01:14:36;;;;;;;8.50;4.97;;;;;;;;;;5015101;28;20400;-70
2022/02/24 01:17:03;;;;;;;9.30;4.30;;;;;;;;;;5028744;28;20495;-69
2022/02/24 01:19:30;;;;;;;10.30;4.43;;;;;;;;;;5028109;28;20022;-69
2022/02/24 01:21:56;;;;;;;8.67;3.87;;;;;;;;;;5028003;28;20449;-69
2022/02/24 01:24:23;;;;;;;6.30;3.40;;;;;;;;;;5027562;28;20026;-70
2022/02/24 01:26:50;;;;;;;6.63;4.17;;;;;;;;;;5031000;28;20029;-69
2022/02/24 01:29:17;;;;;;;10.30;3.60;;;;;;;;;;5032484;28;20021;-69
2022/02/24 01:31:43;;;;;;;11.27;4.33;;;;;;;;;;5032844;28;20060;-70
2022/02/24 01:34:10;;;;;;;8.10;3.93;;;;;;;;;;5032713;28;20030;-69
2022/02/24 01:36:37;;;;;;;5.93;3.70;;;;;;;;;;5032692;28;20084;-69
2022/02/24 01:39:04;;;;;;;9.47;3.63;;;;;;;;;;5029251;28;20494;-69
2022/02/24 01:41:30;;;;;;;5.77;3.60;;;;;;;;;;5027203;28;20021;-70
2022/02/24 01:43:57;;;;;;;6.43;3.90;;;;;;;;;;5027315;28;20028;-69
2022/02/24 01:46:24;;;;;;;6.53;4.00;;;;;;;;;;5027647;28;20601;-70
2022/02/24 01:48:50;;;;;;;9.60;4.73;;;;;;;;;;5029395;28;20032;-69
2022/02/24 01:51:17;;;;;;;12.70;3.67;;;;;;;;;;5032580;28;20057;-69
2022/02/24 01:53:44;;;;;;;8.17;3.80;;;;;;;;;;5032330;28;20546;-70
2022/02/24 01:56:11;;;;;;;13.03;4.30;;;;;;;;;;5032416;28;20026;-70
2022/02/24 01:58:38;;;;;;;5.47;3.20;;;;;;;;;;5031813;28;20017;-69
2022/02/24 02:01:04;;;;;;;7.53;3.60;;;;;;;;;;5029402;28;20096;-69
2022/02/24 02:03:31;;;;;;;8.20;3.80;;;;;;;;;;5027254;28;20110;-70
2022/02/24 02:05:58;;;;;;;9.33;3.73;;;;;;;;;;5027348;28;20022;-68
2022/02/24 02:08:25;;;;;;;6.20;3.80;;;;;;;;;;5027293;28;20116;-69
2022/02/24 02:10:51;;;;;;;7.87;3.57;;;;;;;;;;5029265;28;20431;-69
2022/02/24 02:13:18;;;;;;;8.43;3.57;;;;;;;;;;5032045;28;20160;-69
2022/02/24 02:15:45;;;;;;;7.80;3.80;;;;;;;;;;5031433;28;20108;-69
2022/02/24 02:18:12;;;;;;;7.03;3.10;;;;;;;;;;5032335;28;20029;-69
2022/02/24 02:20:39;;;;;;;5.13;3.03;;;;;;;;;;5032083;28;20068;-69
2022/02/24 02:23:06;;;;;;;11.53;3.40;;;;;;;;;;5030109;28;20496;-70
2022/02/24 02:25:33;;;;;;;11.77;4.23;;;;;;;;;;5027044;28;20100;-69
2022/02/24 02:28:00;;;;;;;6.43;3.20;;;;;;;;;;5027196;28;20032;-70
2022/02/24 02:30:27;;;;;;;6.17;2.90;;;;;;;;;;5027019;28;20025;-69
2022/02/24 02:32:54;;;;;;;8.23;3.03;;;;;;;;;;5027625;28;20021;-69
2022/02/24 02:35:21;;;;;;;4.70;2.53;;;;;;;;;;5031974;28;20029;-69
2022/02/24 02:37:48;;;;;;;6.30;3.07;;;;;;;;;;5031923;28;20025;-70
2022/02/24 02:40:14;;;;;;;4.93;3.37;;;;;;;;;;5032068;28;20476;-70
2022/02/24 02:42:41;;;;;;;4.40;2.70;;;;;;;;;;5031995;28;20021;-70
2022/02/24 02:45:08;;;;;;;8.40;3.23;;;;;;;;;;5030615;28;20500;-70
2022/02/24 02:47:35;;;;;;;4.87;2.73;;;;;;;;;;5026689;28;20064;-70
2022/02/24 02:50:03;;;;;;;4.30;2.40;;;;;;;;;;5026314;28;20022;-70
2022/02/24 02:52:30;;;;;;;6.77;3.13;;;;;;;;;;5026612;28;20029;-70
2022/02/24 02:55:00;;;;;;;4.40;2.73;;;;;;;;;;5026633;28;20045;-70
2022/02/24 02:57:26;;;;;;;5.87;3.70;;;;;;;;;;5032001;28;20053;-70
2022/02/24 02:59:53;;;;;;;4.73;2.80;;;;;;;;;;5033174;28;20093;-70
2022/02/24 03:02:20;;;;;;;5.47;3.27;;;;;;;;;;5035466;28;20022;-70
2022/02/24 03:04:50;;;;;;;5.50;3.20;;;;;;;;;;5035540;28;20510;-70
2022/02/24 03:07:19;;;;;;;6.93;3.17;;;;;;;;;;5033929;28;20455;-70
2022/02/24 03:09:47;;;;;;;4.37;2.67;;;;;;;;;;5030199;28;20109;-70
2022/02/24 03:12:14;;;;;;;7.57;2.60;;;;;;;;;;5030023;28;20026;-70
2022/02/24 03:14:41;;;;;;;5.33;2.67;;;;;;;;;;5030406;28;20037;-70
2022/02/24 03:17:08;;;;;;;9.20;2.83;;;;;;;;;;5030626;28;20033;-70
2022/02/24 03:19:35;;;;;;;5.27;2.77;;;;;;;;;;5035152;28;20083;-70
2022/02/24 03:22:01;;;;;;;7.10;2.57;;;;;;;;;;5033892;28;20017;-70
2022/02/24 03:24:28;;;;;;;6.13;2.73;;;;;;;;;;5017423;28;20491;-70
2022/02/24 03:26:55;;;;;;;6.47;3.20;;;;;;;;;;5034977;28;20530;-70
2022/02/24 03:29:22;;;;;;;7.60;3.00;;;;;;;;;;5034522;28;20091;-70
2022/02/24 03:31:48;;;;;;;5.67;3.00;;;;;;;;;;5030016;28;20528;-70
2022/02/24 03:34:15;;;;;;;4.50;2.77;;;;;;;;;;5030132;28;20041;-70
2022/02/24 03:36:42;;;;;;;6.77;3.30;;;;;;;;;;5011524;28;20376;-70
2022/02/24 03:39:09;;;;;;;5.97;3.17;;;;;;;;;;5029288;28;20101;-72
2022/02/24 03:41:35;;;;;;;13.63;3.87;;;;;;;;;;5034646;28;20055;-72
2022/02/24 03:44:02;;;;;;;5.70;3.33;;;;;;;;;;5034834;28;20384;-72
2022/02/24 03:46:29;;;;;;;7.00;3.23;;;;;;;;;;5034422;28;20033;-72
2022/02/24 03:48:55;;;;;;;9.80;3.30;;;;;;;;;;5034760;28;20068;-71
2022/02/24 03:51:22;;;;;;;6.80;3.60;;;;;;;;;;5034725;28;20473;-72
2022/02/24 03:53:49;;;;;;;5.93;3.40;;;;;;;;;;5029234;28;20052;-72
2022/02/24 03:56:15;;;;;;;7.80;3.23;;;;;;;;;;5029160;28;20375;-72
2022/02/24 03:58:42;;;;;;;9.73;3.60;;;;;;;;;;5029226;28;20029;-71
2022/02/24 04:01:09;;;;;;;8.83;3.13;;;;;;;;;;5028962;28;20030;-71
2022/02/24 04:03:35;;;;;;;7.10;4.10;;;;;;;;;;5033811;28;20026;-71
2022/02/24 04:06:02;;;;;;;7.47;3.73;;;;;;;;;;5034257;28;20357;-71
2022/02/24 04:08:29;;;;;;;7.77;3.27;;;;;;;;;;5034452;28;20064;-72
2022/02/24 04:10:56;;;;;;;7.23;3.63;;;;;;;;;;5033242;28;20120;-70
2022/02/24 04:13:23;;;;;;;10.83;3.60;;;;;;;;;;5033759;28;20033;-71
2022/02/24 04:15:49;;;;;;;10.10;3.43;;;;;;;;;;5029124;28;20103;-71
2022/02/24 04:18:16;;;;;;;7.20;3.50;;;;;;;;;;5029201;28;20353;-76
2022/02/24 04:20:43;;;;;;;16.57;3.93;;;;;;;;;;5029291;28;20100;-74
2022/02/24 04:23:10;;;;;;;8.70;3.13;;;;;;;;;;5029213;28;20105;-77
2022/02/24 04:25:36;;;;;;;6.63;2.90;;;;;;;;;;5033119;28;20079;-76
2022/02/24 04:28:03;;;;;;;9.67;3.07;;;;;;;;;;5033352;28;20018;-76
2022/02/24 04:30:30;;;;;;;6.07;3.00;;;;;;;;;;5033569;28;20025;-79
2022/02/24 04:32:56;;;;;;;5.13;2.33;;;;;;;;;;5034018;28;20100;-73
2022/02/24 04:35:23;;;;;;;7.53;2.97;;;;;;;;;;5033833;28;20033;-75
2022/02/24 04:37:50;;;;;;;9.37;3.43;;;;;;;;;;5029671;28;20026;-75
2022/02/24 04:40:17;;;;;;;6.33;3.13;;;;;;;;;;5029051;28;20104;-74
2022/02/24 04:42:44;;;;;;;4.60;2.67;;;;;;;;;;5028194;28;20490;-72
2022/02/24 04:45:11;;;;;;;7.03;3.10;;;;;;;;;;5027941;28;20037;-72
2022/02/24 04:47:37;;;;;;;7.40;3.13;;;;;;;;;;5031650;28;20056;-75
2022/02/24 04:50:05;;;;;;;5.87;2.97;;;;;;;;;;5033621;28;20025;-75
2022/02/24 04:52:32;;;;;;;7.10;2.33;;;;;;;;;;5033485;28;20031;-74
2022/02/24 04:54:59;;;;;;;8.77;3.10;;;;;;;;;;5033407;28;20380;-74
2022/02/24 04:57:27;;;;;;;5.80;2.83;;;;;;;;;;5033180;28;20029;-70
2022/02/24 04:59:55;;;;;;;4.50;2.70;;;;;;;;;;5029868;28;20029;-71
2022/02/24 05:02:22;;;;;;;6.77;3.60;;;;;;;;;;5028108;28;20030;-71
2022/02/24 05:04:49;;;;;;;6.90;3.57;;;;;;;;;;5027960;28;20489;-71
2022/02/24 05:07:16;;;;;;;8.87;3.47;;;;;;;;;;5028194;28;20472;-71
2022/02/24 05:09:43;;;;;;;5.87;3.20;;;;;;;;;;5030902;28;20033;-72
2022/02/24 05:12:10;;;;;;;6.37;3.00;;;;;;;;;;5032764;28;20029;-71
2022/02/24 05:14:36;;;;;;;5.03;2.57;;;;;;;;;;5032839;28;20033;-71
2022/02/24 05:17:04;;;;;;;5.90;3.30;;;;;;;;;;5032546;28;20025;-71
2022/02/24 05:19:30;;;;;;;13.13;3.87;;;;;;;;;;5033138;28;20014;-71
2022/02/24 05:21:57;;;;;;;11.27;4.00;;;;;;;;;;5029858;28;20503;-71
2022/02/24 05:24:24;;;;;;;6.40;2.70;;;;;;;;;;5027795;28;20100;-71
2022/02/24 05:26:50;;;;;;;5.37;2.90;;;;;;;;;;5027487;28;20400;-71
2022/02/24 05:29:17;;;;;;;5.10;3.27;;;;;;;;;;5027582;28;20104;-71
2022/02/24 05:31:44;;;;;;;7.93;3.97;;;;;;;;;;5030023;28;20080;-71
2022/02/24 05:34:10;;;;;;;6.03;2.80;;;;;;;;;;5032140;28;20476;-71
2022/02/24 05:36:38;;;;;;;6.03;3.17;;;;;;;;;;5033069;28;20368;-71
2022/02/24 05:39:05;;;;;;;6.90;3.53;;;;;;;;;;5032589;28;20029;-71
2022/02/24 05:41:32;;;;;;;5.10;3.20;;;;;;;;;;5032715;28;20519;-71
2022/02/24 05:43:59;;;;;;;9.87;3.50;;;;;;;;;;5029596;28;20084;-71
2022/02/24 05:46:25;;;;;;;6.00;3.57;;;;;;;;;;5027551;28;20557;-71
2022/02/24 05:48:52;;;;;;;5.77;3.07;;;;;;;;;;5027324;28;20376;-71
2022/02/24 05:51:19;;;;;;;5.23;3.27;;;;;;;;;;5027381;28;20109;-71
2022/02/24 05:53:45;;;;;;;5.10;3.23;;;;;;;;;;5029078;28;20033;-77
2022/02/24 05:56:12;;;;;;;7.87;3.43;;;;;;;;;;5032363;28;20481;-79
2022/02/24 05:58:39;;;;;;;4.50;2.87;;;;;;;;;;5032139;28;20092;-77
2022/02/24 06:01:06;;;;;;;6.07;3.43;;;;;;;;;;5032013;28;20029;-75
2022/02/24 06:03:32;;;;;;;6.27;3.37;;;;;;;;;;5012607;28;20113;-68
2022/02/24 06:05:59;;;;;;;8.13;3.53;;;;;;;;;;5010372;28;20029;-68
2022/02/24 06:08:26;;;;;;;10.30;3.80;;;;;;;;;;5025177;28;20469;-69
2022/02/24 06:10:53;;;;;;;7.00;3.57;;;;;;;;;;5027289;28;20037;-71
2022/02/24 06:13:19;;;;;;;5.83;3.37;;;;;;;;;;5027350;28;20095;-71
2022/02/24 06:15:46;;;;;;;5.60;3.03;;;;;;;;;;5028006;28;20033;-74
2022/02/24 06:18:18;;;;;;;8.37;3.50;;;;;;;;;;5031042;28;20103;-74
2022/02/24 06:20:46;;;;;;;6.37;3.30;;;;;;;;;;5030353;28;20092;-73
2022/02/24 06:23:13;;;;;;;6.03;3.63;;;;;;;;;;5029712;28;20033;-74
2022/02/24 06:25:40;;;;;;;7.93;4.03;;;;;;;;;;5030185;28;20053;-73
2022/02/24 06:28:07;;;;;;;8.00;4.13;;;;;;;;;;5028636;28;20029;-73
2022/02/24 06:30:33;;;;;;;7.83;3.90;;;;;;;;;;5025274;28;20500;-73
2022/02/24 06:33:00;;;;;;;4.60;3.17;;;;;;;;;;5025575;28;20108;-73
2022/02/24 06:35:27;;;;;;;6.37;3.67;;;;;;;;;;5028417;28;20038;-73
2022/02/24 06:37:54;;;;;;;6.27;4.07;;;;;;;;;;5029503;28;20569;-73
2022/02/24 06:40:21;;;;;;;5.10;3.33;;;;;;;;;;5036015;28;20029;-73
2022/02/24 06:42:48;;;;;;;5.60;3.57;;;;;;;;;;5036002;28;20315;-73
2022/02/24 06:45:15;;;;;;;9.17;3.50;;;;;;;;;;5035801;28;20555;-73
2022/02/24 06:47:42;;;;;;;6.40;3.33;;;;;;;;;;5035585;28;20032;-73
2022/02/24 06:50:10;;;;;;;6.00;3.50;;;;;;;;;;5034989;28;20447;-73
2022/02/24 06:52:38;;;;;;;7.77;4.40;;;;;;;;;;5030161;28;20049;-74
2022/02/24 06:55:06;;;;;;;6.50;3.77;;;;;;;;;;5030168;28;20040;-73
2022/02/24 06:57:37;;;;;;;4.63;3.37;;;;;;;;;;5030290;28;20063;-74
2022/02/24 07:00:04;;;;;;;5.80;3.40;;;;;;;;;;5030235;28;20472;-74
2022/02/24 07:02:31;;;;;;;4.90;3.30;;;;;;;;;;5035514;28;20025;-73
2022/02/24 07:04:57;;;;;;;6.20;3.50;;;;;;;;;;5035303;28;20416;-74
2022/02/24 07:07:24;;;;;;;5.73;3.47;;;;;;;;;;5035121;28;20044;-74
2022/02/24 07:09:51;;;;;;;8.00;3.57;;;;;;;;;;5034944;28;20484;-74
2022/02/24 07:12:17;;;;;;;5.83;3.50;;;;;;;;;;5034785;28;20022;-73
2022/02/24 07:14:44;;;;;;;7.93;3.77;;;;;;;;;;5029958;28;20072;-73
2022/02/24 07:17:11;;;;;;;7.83;3.90;;;;;;;;;;5029964;28;20385;-74
2022/02/24 07:19:37;;;;;;;6.57;3.77;;;;;;;;;;5030103;28;20040;-73
2022/02/24 07:22:04;;;;;;;5.90;3.53;;;;;;;;;;5029357;28;20025;-74
2022/02/24 07:24:31;;;;;;;6.43;3.70;;;;;;;;;;5034623;28;20029;-73
2022/02/24 07:26:57;;;;;;;9.10;4.13;;;;;;;;;;5034811;28;20492;-73
2022/02/24 07:29:24;;;;;;;9.17;3.87;;;;;;;;;;5034945;28;20443;-73
2022/02/24 07:31:51;;;;;;;7.07;3.90;;;;;;;;;;5034947;28;20025;-73
2022/02/24 07:34:17;;;;;;;5.43;3.77;;;;;;;;;;5034664;28;20079;-73
2022/02/24 07:36:44;;;;;;;7.40;3.03;;;;;;;;;;5029674;28;20017;-73
2022/02/24 07:39:12;;;;;;;4.83;2.90;;;;;;;;;;5029320;28;20040;-73
2022/02/24 07:41:39;;;;;;;4.90;3.00;;;;;;;;;;5029273;28;20109;-73
2022/02/24 07:44:06;;;;;;;5.40;3.07;;;;;;;;;;5029551;28;20022;-73
2022/02/24 07:46:33;;;;;;;7.00;2.67;;;;;;;;;;5032684;28;20021;-73
2022/02/24 07:49:00;;;;;;;6.77;3.20;;;;;;;;;;5034735;28;20029;-73
2022/02/24 07:51:27;;;;;;;5.27;3.30;;;;;;;;;;5034707;28;20041;-73
2022/02/24 07:53:54;;;;;;;26.87;6.87;;;;;;;;;;5034171;28;20105;-74
2022/02/24 07:56:20;;;;;;;7.50;3.70;;;;;;;;;;5034408;28;20029;-74
2022/02/24 07:58:47;;;;;;;6.37;3.57;;;;;;;;;;5029484;28;20029;-74
2022/02/24 08:01:15;;;;;;;6.37;3.33;;;;;;;;;;5029087;28;20026;-74
2022/02/24 08:03:42;;;;;;;5.70;3.00;;;;;;;;;;5029193;28;20026;-73
2022/02/24 08:06:08;;;;;;;5.40;3.37;;;;;;;;;;5028971;28;20053;-73
2022/02/24 08:08:35;;;;;;;4.53;2.77;;;;;;;;;;5032680;28;20423;-73
2022/02/24 08:11:02;;;;;;;6.03;3.40;;;;;;;;;;5033595;28;20030;-73
2022/02/24 08:13:29;;;;;;;5.77;3.40;;;;;;;;;;5033845;28;20028;-73
2022/02/24 08:15:55;;;;;;;6.60;3.63;;;;;;;;;;5033992;28;20034;-73
2022/02/24 08:18:22;;;;;;;6.67;3.63;;;;;;;;;;5034149;28;20451;-73
2022/02/24 08:20:49;;;;;;;11.53;4.13;;;;;;;;;;5029613;28;20040;-74
2022/02/24 08:23:18;;;;;;;7.50;4.77;;;;;;;;;;5028416;28;20112;-74
2022/02/24 08:25:45;;;;;;;9.07;4.33;;;;;;;;;;5028842;28;20384;-73
2022/02/24 08:28:12;;;;;;;8.17;3.77;;;;;;;;;;5028682;28;20022;-73
2022/02/24 08:30:39;;;;;;;6.20;3.77;;;;;;;;;;5031659;28;20029;-74
2022/02/24 08:33:05;;;;;;;7.73;3.80;;;;;;;;;;5034095;28;20022;-73
2022/02/24 08:35:33;;;;;;;5.73;3.53;;;;;;;;;;5033282;28;20033;-73
2022/02/24 08:38:01;;;;;;;6.83;3.43;;;;;;;;;;5033800;28;20472;-73
2022/02/24 08:40:27;;;;;;;6.03;4.17;;;;;;;;;;5033399;28;20087;-73
2022/02/24 08:42:54;;;;;;;6.30;3.57;;;;;;;;;;5029862;28;20499;-73
2022/02/24 08:45:21;;;;;;;9.23;4.50;;;;;;;;;;5028153;28;20036;-74
2022/02/24 08:47:48;;;;;;;6.60;3.27;;;;;;;;;;5010712;28;20383;-73
2022/02/24 08:50:15;;;;;;;7.27;4.00;;;;;;;;;;5028382;28;20101;-73
2022/02/24 08:52:42;;;;;;;6.93;3.90;;;;;;;;;;5031056;28;20029;-73
2022/02/24 08:55:08;;;;;;;6.83;3.70;;;;;;;;;;5033021;28;20091;-73
2022/02/24 08:57:35;;;;;;;9.93;4.73;;;;;;;;;;5032737;28;20116;-72
2022/02/24 09:00:02;;;;;;;6.70;3.50;;;;;;;;;;5033156;28;20060;-73
2022/02/24 09:02:29;;;;;;;6.20;4.03;;;;;;;;;;5032892;28;20029;-73
2022/02/24 09:04:55;;;;;;;7.33;4.33;;;;;;;;;;5029856;28;20029;-73
2022/02/24 09:07:22;;;;;;;6.80;4.17;;;;;;;;;;5027997;28;20049;-73
2022/02/24 09:09:49;;;;;;;10.23;4.93;;;;;;;;;;5027415;28;20033;-73
2022/02/24 09:12:15;;;;;;;7.93;3.93;;;;;;;;;;5027787;28;20026;-73
2022/02/24 09:14:42;;;;;;;7.47;4.23;;;;;;;;;;5030310;28;20033;-73
2022/02/24 09:17:10;;;;;;;7.80;3.93;;;;;;;;;;5032619;28;20322;-73
2022/02/24 09:19:43;;;;;;;6.57;3.70;;;;;;;;;;5033017;28;20029;-73
2022/02/24 09:22:12;;;;;;;12.40;4.50;;;;;;;;;;5032848;28;20026;-73
2022/02/24 09:24:40;;;;;;;6.77;3.37;;;;;;;;;;5032446;28;20255;-72
2022/02/24 09:27:07;;;;;;;6.50;3.80;;;;;;;;;;5010735;28;20335;-73
2022/02/24 09:29:37;;;;;;;6.13;3.20;;;;;;;;;;5027639;28;20255;-73
2022/02/24 09:32:04;;;;;;;7.37;4.00;;;;;;;;;;5027320;28;20263;-73
2022/02/24 09:34:31;;;;;;;6.63;3.87;;;;;;;;;;5027374;28;20326;-73
2022/02/24 09:36:57;;;;;;;7.27;4.00;;;;;;;;;;5029784;28;20254;-72
2022/02/24 09:39:24;;;;;;;8.30;4.73;;;;;;;;;;5032286;28;20773;-73
2022/02/24 09:41:51;;;;;;;8.87;3.80;;;;;;;;;;5032398;28;20358;-73
2022/02/24 09:44:17;;;;;;;6.73;4.20;;;;;;;;;;5032419;28;20745;-73
2022/02/24 09:46:44;;;;;;;8.63;3.97;;;;;;;;;;5032251;28;20259;-73
2022/02/24 09:49:12;;;;;;;9.47;4.90;;;;;;;;;;5029831;28;20305;-73
2022/02/24 09:51:43;;;;;;;11.03;3.93;;;;;;;;;;5027223;28;20765;-73
2022/02/24 09:54:10;;;;;;;7.50;4.10;;;;;;;;;;5026687;28;20294;-73
2022/02/24 09:56:37;;;;;;;5.80;3.60;;;;;;;;;;5026981;28;20263;-73
2022/02/24 09:59:04;;;;;;;7.63;3.43;;;;;;;;;;5029300;28;20745;-73
2022/02/24 10:01:30;;;;;;;6.43;3.30;;;;;;;;;;5031470;28;20302;-73
2022/02/24 10:03:59;;;;;;;7.77;3.43;;;;;;;;;;5032239;28;20257;-73
2022/02/24 10:06:45;;;;;;;6.17;3.40;;;;;;;;;;5032348;28;20274;-72
2022/02/24 10:09:19;;;;;;;5.47;3.15;;;;;;;;;;5031579;28;20344;-72
2022/02/24 10:11:47;;;;;;;6.53;3.40;;;;;;;;;;5028311;28;20036;-72
2022/02/24 10:14:20;;;;;;;5.23;3.13;;;;;;;;;;5026508;28;20326;-73
2022/02/24 10:16:59;;;;;;;7.47;3.00;;;;;;;;;;5026978;28;20274;-73
2022/02/24 10:19:46;;;;;;;7.00;3.87;;;;;;;;;;5026918;28;20254;-73
2022/02/24 10:22:21;;;;;;;6.13;3.10;;;;;;;;;;5030680;28;20748;-73
2022/02/24 10:25:04;;;;;;;5.40;2.70;;;;;;;;;;5032278;28;20267;-72
2022/02/24 10:27:32;;;;;;;5.10;3.10;;;;;;;;;;5032245;28;20040;-73
2022/02/24 10:30:05;;;;;;;5.17;2.83;;;;;;;;;;5031272;28;20263;-73
2022/02/24 10:32:39;;;;;;;6.37;3.67;;;;;;;;;;5031945;28;20773;-73
2022/02/24 10:35:18;;;;;;;9.00;3.70;;;;;;;;;;5026809;28;20298;-73
2022/02/24 10:37:50;;;;;;;5.83;3.67;;;;;;;;;;5026892;28;20258;-73
2022/02/24 10:40:17;;;;;;;9.20;3.90;;;;;;;;;;5026619;28;20760;-73
2022/02/24 10:42:44;;;;;;;7.10;3.50;;;;;;;;;;5026964;28;20262;-73
2022/02/24 10:45:17;;;;;;;6.17;3.67;;;;;;;;;;5031617;28;20319;-72
2022/02/24 10:47:57;;;;;;;6.27;3.40;;;;;;;;;;5031632;28;20266;-72
2022/02/24 10:50:43;;;;;;;4.97;3.17;;;;;;;;;;5031381;28;20254;-72
2022/02/24 10:53:10;;;;;;;5.73;3.07;;;;;;;;;;5018307;28;20271;-73
2022/02/24 10:56:06;;;;;;;5.90;2.93;;;;;;;;;;5029500;28;20283;-73
2022/02/24 10:58:43;;;;;;;4.40;2.55;;;;;;;;;;5009907;28;20617;-73
2022/02/24 11:01:19;;;;;;;5.63;3.07;;;;;;;;;;5026172;28;20033;-73
2022/02/24 11:03:47;;;;;;;5.80;3.10;;;;;;;;;;5026377;28;20645;-73
2022/02/24 11:06:14;;;;;;;5.83;2.77;;;;;;;;;;5029513;28;20287;-73
2022/02/24 11:08:41;;;;;;;5.17;2.93;;;;;;;;;;5031518;28;20259;-73
2022/02/24 11:11:08;;;;;;;5.57;2.80;;;;;;;;;;5013863;28;20614;-73
2022/02/24 11:13:36;;;;;;;7.10;3.17;;;;;;;;;;5031712;28;20255;-72
2022/02/24 11:16:03;;;;;;;6.47;2.93;;;;;;;;;;5031468;28;20290;-73
2022/02/24 11:18:29;;;;;;;5.43;2.97;;;;;;;;;;5028135;28;20259;-73
2022/02/24 11:20:57;;;;;;;5.33;2.90;;;;;;;;;;5027625;28;20268;-73
2022/02/24 11:23:24;;;;;;;4.80;2.30;;;;;;;;;;5029550;28;20571;-73
2022/02/24 11:26:09;;;;;;;7.50;3.27;;;;;;;;;;5029708;28;21069;-73
2022/02/24 11:29:02;;;;;;;4.63;2.97;;;;;;;;;;5033091;28;20251;-73
2022/02/24 11:31:35;;;;;;;6.00;3.03;;;;;;;;;;5031419;28;20570;-73
2022/02/24 11:34:02;;;;;;;5.50;2.37;;;;;;;;;;5034754;28;20270;-73
2022/02/24 11:36:38;;;;;;;4.63;2.50;;;;;;;;;;5034967;28;20266;-73
2022/02/24 11:39:08;;;;;;;4.67;2.60;;;;;;;;;;5034352;28;20322;-73
2022/02/24 11:41:52;;;;;;;3.90;2.40;;;;;;;;;;5029339;28;20262;-72
2022/02/24 11:44:40;;;;;;;4.67;2.53;;;;;;;;;;5029564;28;20320;-73
2022/02/24 11:47:07;;;;;;;5.50;2.20;;;;;;;;;;5029451;28;20642;-72
2022/02/24 11:49:52;;;;;;;5.77;2.60;;;;;;;;;;5029806;28;20262;-72
2022/02/24 11:52:20;;;;;;;6.57;2.42;;;;;;;;;;5034669;28;20286;-72
2022/02/24 11:54:47;;;;;;;5.40;2.87;;;;;;;;;;5033821;28;20111;-72
2022/02/24 11:57:30;;;;;;;8.03;2.53;;;;;;;;;;5034338;28;20661;-72
2022/02/24 11:59:58;;;;;;;4.40;2.40;;;;;;;;;;5034351;28;20301;-72
2022/02/24 12:02:43;;;;;;;5.40;3.07;;;;;;;;;;5032485;28;20259;-73
2022/02/24 12:05:10;;;;;;;;;;;;;;;;;;5029683;28;20263;-72
2022/02/24 12:07:36;;;;;;;6.20;2.80;;;;;;;;;;5028635;28;19905;-73
2022/02/24 12:10:11;;;;;;;5.03;2.70;;;;;;;;;;5028857;28;20622;-72
2022/02/24 12:12:37;;;;;;;5.83;2.43;;;;;;;;;;5031064;28;20309;-73
2022/02/24 12:15:17;;;;;;;4.23;2.40;;;;;;;;;;5034198;28;20291;-72
2022/02/24 12:17:49;;;;;;;4.53;2.53;;;;;;;;;;5034048;28;20259;-73
2022/02/24 12:20:25;;;;;;;4.27;2.30;;;;;;;;;;5034304;28;20248;-73
2022/02/24 12:22:52;;;;;;;5.73;2.50;;;;;;;;;;5034026;28;20251;-73
2022/02/24 12:25:26;;;;;;;4.17;2.23;;;;;;;;;;5029821;28;20685;-73
2022/02/24 12:28:01;;;;;;;6.13;2.60;;;;;;;;;;5028684;28;20269;-72
2022/02/24 12:30:30;;;;;;;5.75;2.20;;;;;;;;;;5028675;28;20368;-72
2022/02/24 12:33:01;;;;;;;4.50;2.40;;;;;;;;;;5027894;28;20041;-73
2022/02/24 12:35:29;;;;;;;5.63;2.77;;;;;;;;;;5032017;28;20765;-73
2022/02/24 12:37:56;;;;;;;6.10;3.60;;;;;;;;;;5033734;28;20259;-72
2022/02/24 12:40:28;;;;;;;10.17;4.80;;;;;;;;;;5033422;28;20671;-72
2022/02/24 12:42:55;;;;;;;16.37;6.73;;;;;;;;;;5033395;28;20251;-72
2022/02/24 12:45:22;;;;;;;24.80;12.70;;;;;;;;;;5033398;28;20662;-72
2022/02/24 12:47:50;;;;;;;28.83;15.70;;;;;;;;;;5029506;28;20258;-72
2022/02/24 12:50:21;;;;;;;26.07;11.90;;;;;;;;;;5028340;28;20278;-72
2022/02/24 12:52:47;;;;;;;18.43;8.83;;;;;;;;;;5028199;28;20359;-73
2022/02/24 12:55:17;;;;;;;39.63;12.93;;;;;;;;;;5027745;28;20290;-72
2022/02/24 12:57:44;;;;;;;21.83;8.57;;;;;;;;;;5031577;28;20373;-72
2022/02/24 13:00:11;;;;;;;13.47;7.00;;;;;;;;;;5033255;28;20263;-72
2022/02/24 13:02:41;;;;;;;15.63;6.53;;;;;;;;;;5033057;28;20293;-72
2022/02/24 13:05:10;;;;;;;18.33;7.07;;;;;;;;;;5033106;28;20270;-73
2022/02/24 13:10:32;;;;;;;21.03;8.90;;;;;;;;;;5027977;28;20270;-72
2022/02/24 13:12:59;;;;;;;21.87;8.37;;;;;;;;;;5027453;28;20275;-72
2022/02/24 13:15:33;;;;;;;19.63;8.87;;;;;;;;;;5027720;28;20770;-72
2022/02/24 13:18:00;;;;;;;21.87;7.60;;;;;;;;;;5027271;28;20251;-72
2022/02/24 13:20:33;;;;;;;23.07;7.20;;;;;;;;;;5032288;28;20844;-72
2022/02/24 13:23:00;;;;;;;19.17;6.53;;;;;;;;;;5032775;28;20289;-72
2022/02/24 13:25:27;;;;;;;17.03;7.70;;;;;;;;;;5031988;28;20595;-72
2022/02/24 13:27:54;;;;;;;19.57;8.57;;;;;;;;;;5032522;28;20613;-72
2022/02/24 13:30:22;;;;;;;15.20;7.13;;;;;;;;;;5032524;28;20337;-72
2022/02/24 13:32:49;;;;;;;12.23;5.07;;;;;;;;;;5027456;28;20259;-72
2022/02/24 13:35:16;;;;;;;11.20;5.07;;;;;;;;;;5027403;28;20781;-72
2022/02/24 13:37:43;;;;;;;12.50;5.80;;;;;;;;;;5026959;28;20622;-72
2022/02/24 13:40:17;;;;;;;11.23;5.50;;;;;;;;;;5027258;28;20259;-72
2022/02/24 13:43:03;;;;;;;16.63;9.10;;;;;;;;;;5032307;28;20345;-72
2022/02/24 13:45:30;;;;;;;21.20;6.37;;;;;;;;;;5014191;28;20614;-72
2022/02/24 13:47:58;;;;;;;12.97;5.60;;;;;;;;;;5032430;28;20258;-72
2022/02/24 13:50:40;;;;;;;11.30;5.80;;;;;;;;;;5032447;28;20281;-72
2022/02/24 13:53:06;;;;;;;19.47;5.93;;;;;;;;;;5030347;28;20345;-72
2022/02/24 13:55:33;;;;;;;12.47;5.70;;;;;;;;;;5009443;28;20344;-72
2022/02/24 13:58:04;;;;;;;13.83;6.53;;;;;;;;;;5027271;28;20598;-72
2022/02/24 14:00:32;;;;;;;12.30;5.30;;;;;;;;;;5027089;28;20366;-73
2022/02/24 14:02:59;;;;;;;12.80;6.53;;;;;;;;;;5027592;28;20760;-72
2022/02/24 14:05:26;;;;;;;14.23;5.43;;;;;;;;;;5031930;28;20332;-74
2022/02/24 14:07:59;;;;;;;15.70;4.57;;;;;;;;;;5031861;28;20262;-73
2022/02/24 14:10:27;;;;;;;9.27;5.10;;;;;;;;;;5032160;28;20092;-73
2022/02/24 14:12:54;;;;;;;8.17;4.80;;;;;;;;;;5032280;28;20022;-73
2022/02/24 14:15:21;;;;;;;13.33;5.40;;;;;;;;;;5030914;28;20536;-74
2022/02/24 14:17:48;;;;;;;8.07;5.33;;;;;;;;;;5026763;28;20033;-74
2022/02/24 14:20:14;;;;;;;8.77;5.07;;;;;;;;;;5026071;28;20376;-73
2022/02/24 14:22:41;;;;;;;9.13;4.57;;;;;;;;;;5026838;28;20022;-73
2022/02/24 14:25:08;;;;;;;11.73;5.80;;;;;;;;;;5027290;28;20025;-73
2022/02/24 14:27:36;;;;;;;8.27;5.23;;;;;;;;;;5031921;28;20543;-73
2022/02/24 14:30:03;;;;;;;11.60;5.40;;;;;;;;;;5032085;28;20029;-73
2022/02/24 14:32:30;;;;;;;12.10;6.00;;;;;;;;;;5032086;28;20021;-73
2022/02/24 14:34:57;;;;;;;8.97;5.50;;;;;;;;;;5031578;28;20037;-73
2022/02/24 14:37:24;;;;;;;12.27;5.40;;;;;;;;;;5030537;28;20024;-73
2022/02/24 14:39:50;;;;;;;11.30;5.10;;;;;;;;;;5026765;28;20034;-73
2022/02/24 14:42:17;;;;;;;9.07;5.63;;;;;;;;;;5026584;28;20029;-73
2022/02/24 14:44:44;;;;;;;8.67;4.93;;;;;;;;;;5026610;28;20049;-73
2022/02/24 14:47:10;;;;;;;7.87;4.57;;;;;;;;;;5026723;28;20026;-73
2022/02/24 14:49:37;;;;;;;8.83;5.30;;;;;;;;;;5031530;28;20029;-73